Richmond Dale, Ohio
Current Conditions -  °F | °C
As of 3:54 AM on Wednesday 26 Nov 2014 (Local Time) from KRZT Reporting Station
Scattered Clouds Scattered Clouds  
Wind Chill: 30°   Ceiling: Unl
Heat Index: 30°   Visibility: 10mi
Dew Point: 28°   Wind: 3mph
Humidity: 93%   Direction: 20°NNE
Pressure: 30.12"   Gusts: NA
Location:  39.2°N, 82.81°W
Report Text: KRZT 260854Z AUTO 02003KT 10SM SCT120 M01/M02 A3012 RMK AO2
Loading
Personal Weather Stations






























Interactive Weather Map New forecast layout! Learn more

10-Day Weather Forecast

Advertisements
Track Severe Weather on mobile